This is the latest recevied weather packets stored in our database for station/object DC4THF-13. If no packets are shown the sender has not sent any weather packets the latest 10 day(s).
| Time | Temp. | Humidity | Pressure | Rain* | Wind** | Luminosity | Snow |
|---|---|---|---|---|---|---|---|
| 1776970978 | 12.22° C | 61% | 1014.6 hPa | 0 mm | - | - | - |
| 1776970375 | 12.78° C | 55% | 1014.7 hPa | 0 mm | - | - | - |
| 1776969772 | 13.33° C | 54% | 1014.5 hPa | 0 mm | - | - | - |
| 1776969169 | 13.89° C | 53% | 1014.3 hPa | 0 mm | - | - | - |
| 1776968565 | 14.44° C | 52% | 1014.3 hPa | 0 mm | - | - | - |
| 1776967962 | 14.44° C | 52% | 1014.3 hPa | 0 mm | - | - | - |
| 1776967359 | 15° C | 51% | 1014.4 hPa | 0 mm | - | - | - |
| 1776966755 | 15° C | 51% | 1014.5 hPa | 0 mm | - | - | - |
| 1776966152 | 15.56° C | 50% | 1014.6 hPa | 0 mm | - | - | - |
| 1776965549 | 15.56° C | 50% | 1014.2 hPa | 0 mm | - | - | - |
| 1776964945 | 15.56° C | 50% | 1013.7 hPa | 0 mm | - | - | - |
| 1776964341 | 16.11° C | 47% | 1013.8 hPa | 0 mm | - | - | - |
| 1776963738 | 17.22° C | 45% | 1013.9 hPa | 0 mm | - | - | - |
| 1776963194 | 17.22° C | 44% | 1013.6 hPa | 0 mm | - | - | - |
| 1776962590 | 17.22° C | 44% | 1013.7 hPa | 0 mm | - | - | - |
| 1776961986 | 17.22° C | 43% | 1014.1 hPa | 0 mm | - | - | - |
| 1776961383 | 17.78° C | 40% | 1014.8 hPa | 0 mm | - | - | - |
| 1776960779 | 17.22° C | 42% | 1014.9 hPa | 0 mm | - | - | - |
| 1776960175 | 17.22° C | 42% | 1015.1 hPa | 0 mm | - | - | - |
| 1776959572 | 17.22° C | 42% | 1015 hPa | 0 mm | - | - | - |
| 1776958969 | 17.22° C | 42% | 1015 hPa | 0 mm | - | - | - |
| 1776958367 | 17.22° C | 42% | 1015.1 hPa | 0 mm | - | - | - |
| 1776957762 | 17.78° C | 40% | 1015.2 hPa | 0 mm | - | - | - |
| 1776957158 | 17.78° C | 40% | 1015.2 hPa | 0 mm | - | - | - |
| 1776956554 | 17.78° C | 41% | 1015.4 hPa | 0 mm | - | - | - |
* Rain latest hour (hover to see other rain measurements)
** Current wind speed in m/s (hover to see current wind gust speed)